Harare, Zimbabwe
Current Conditions -  °F | °C
As of 5:00 PM on Friday 19 Dec 2014 (Local Time) from FVHA Reporting Station
Broken Clouds Broken Clouds  
Wind Chill: 68°   Ceiling: 8000
Heat Index: 68°   Visibility: 6mi
Dew Point: 64°   Wind: 9mph
Humidity: 88%   Direction: 290°WNW
Pressure: 30.09"   Gusts: NA
Location:  17.82°S, 31.05°E
Report Text: FVHA 191500Z 29008KT 9999 SCT010 BKN080 20/18 Q1019 NOSIG RMK QFE 851.9
Loading
Personal Weather Stations






























Interactive Weather Map New forecast layout! Learn more

10-Day Weather Forecast

Advertisements
Track Severe Weather on mobile